createdAt,value
2022-11-14T00:00:38.216Z,36.75
2022-11-14T00:03:08.636Z,40.20
2022-11-14T00:05:43.016Z,40.55
2022-11-14T00:08:16.841Z,39.28
2022-11-14T00:10:47.519Z,39.63
2022-11-14T00:13:15.984Z,38.00
2022-11-14T00:15:44.227Z,42.72
2022-11-14T00:18:12.138Z,40.47
2022-11-14T00:20:41.615Z,42.80
2022-11-14T00:23:09.465Z,50.63
2022-11-14T00:25:37.341Z,45.80
2022-11-14T00:28:05.236Z,53.20
2022-11-14T00:30:33.109Z,49.70
2022-11-14T00:33:00.957Z,53.25
2022-11-14T00:35:28.837Z,47.97
2022-11-14T00:37:58.076Z,53.47
2022-11-14T00:40:25.991Z,54.67
2022-11-14T00:42:53.837Z,50.30
2022-11-14T00:45:21.799Z,56.25
2022-11-14T00:47:49.667Z,51.60
2022-11-14T00:50:18.212Z,50.15
2022-11-14T00:52:46.049Z,49.15
2022-11-14T00:55:15.328Z,44.85
2022-11-14T00:57:43.157Z,46.22
2022-11-14T01:00:14.368Z,46.67
2022-11-14T01:02:42.233Z,50.10
2022-11-14T01:05:10.571Z,43.53
2022-11-14T01:07:38.476Z,45.70
2022-11-14T01:10:07.697Z,43.97
2022-11-14T01:12:36.928Z,44.53
2022-11-14T01:15:05.907Z,45.75
2022-11-14T01:17:33.780Z,45.53
2022-11-14T01:20:01.612Z,46.30
2022-11-14T01:22:31.028Z,48.97
2022-11-14T01:24:59.583Z,44.80
2022-11-14T01:27:27.697Z,47.10
2022-11-14T01:29:56.982Z,50.77
2022-11-14T01:32:24.831Z,46.65
2022-11-14T01:34:52.742Z,43.38
2022-11-14T01:37:20.586Z,46.50
2022-11-14T01:39:48.555Z,50.75
2022-11-14T01:42:21.958Z,50.85
2022-11-14T01:44:54.231Z,48.65
2022-11-14T01:47:27.257Z,46.13
2022-11-14T01:49:57.191Z,45.47
2022-11-14T01:52:29.078Z,43.70
2022-11-14T01:55:00.932Z,47.47
2022-11-14T01:57:38.367Z,45.53
2022-11-14T02:00:12.984Z,43.13
2022-11-14T02:02:44.631Z,43.35
2022-11-14T02:05:16.539Z,42.67
2022-11-14T02:07:44.393Z,43.78
2022-11-14T02:10:17.848Z,45.03
2022-11-14T02:12:46.930Z,47.60
2022-11-14T02:15:15.955Z,42.88
2022-11-14T02:17:45.716Z,47.78
2022-11-14T02:20:22.749Z,43.47
2022-11-14T02:22:50.619Z,47.88
2022-11-14T02:25:19.949Z,39.90
2022-11-14T02:27:48.041Z,43.08
2022-11-14T02:30:18.855Z,45.95
2022-11-14T02:35:36.370Z,45.20
2022-11-14T02:38:04.320Z,48.25
2022-11-14T02:40:32.257Z,45.28
2022-11-14T02:43:00.249Z,43.78
2022-11-14T02:45:28.432Z,51.78
2022-11-14T02:47:56.338Z,44.90
2022-11-14T02:50:24.376Z,46.97
2022-11-14T02:52:54.322Z,43.38
2022-11-14T02:55:22.296Z,45.97
2022-11-14T02:57:50.211Z,38.97
2022-11-14T03:00:19.442Z,41.15
2022-11-14T03:02:47.332Z,45.25
2022-11-14T03:05:15.407Z,42.78
2022-11-14T03:07:43.259Z,43.72
2022-11-14T03:10:14.042Z,43.28
2022-11-14T03:12:41.941Z,41.33
2022-11-14T03:15:11.398Z,43.22
2022-11-14T03:17:39.528Z,41.53
2022-11-14T03:20:08.616Z,43.65
2022-11-14T03:22:36.458Z,35.35
2022-11-14T03:25:04.892Z,38.60
2022-11-14T03:27:34.158Z,46.15
2022-11-14T03:30:02.214Z,42.53
2022-11-14T03:32:30.244Z,38.30
2022-11-14T03:34:58.937Z,45.22
2022-11-14T03:37:26.843Z,40.63
2022-11-14T03:39:54.996Z,40.58
2022-11-14T03:42:22.804Z,40.72
2022-11-14T03:44:52.160Z,38.40
2022-11-14T03:47:20.149Z,38.80
2022-11-14T03:49:48.057Z,43.35
2022-11-14T03:52:15.909Z,36.95
2022-11-14T03:54:44.111Z,37.25
2022-11-14T03:57:12.034Z,41.20
2022-11-14T03:59:40.035Z,44.97
2022-11-14T04:02:09.336Z,42.00
2022-11-14T04:04:37.237Z,42.67
2022-11-14T04:07:05.106Z,46.75
2022-11-14T04:09:33.022Z,43.42
2022-11-14T04:12:00.829Z,47.80
2022-11-14T04:14:28.895Z,44.42
2022-11-14T04:16:56.732Z,49.65
2022-11-14T04:19:26.040Z,45.65
2022-11-14T04:21:53.883Z,41.70
2022-11-14T04:24:21.766Z,45.05
2022-11-14T04:26:49.728Z,49.65
2022-11-14T04:29:17.665Z,48.17
2022-11-14T04:31:45.669Z,43.85
2022-11-14T04:34:13.529Z,45.30
2022-11-14T04:36:43.228Z,46.72
2022-11-14T04:39:11.281Z,48.78
2022-11-14T04:41:39.189Z,48.13
2022-11-14T04:44:07.357Z,49.63
2022-11-14T04:46:35.217Z,54.35
2022-11-14T04:49:03.317Z,53.25
2022-11-14T04:51:31.221Z,51.72
2022-11-14T04:54:00.524Z,46.15
2022-11-14T04:56:29.303Z,56.60
2022-11-14T04:58:57.221Z,57.75
2022-11-14T05:01:25.190Z,55.90
2022-11-14T05:03:53.559Z,65.93
2022-11-14T05:06:21.661Z,44.90
2022-11-14T05:08:49.611Z,43.80
2022-11-14T05:11:23.086Z,48.42
2022-11-14T05:13:53.552Z,43.00
2022-11-14T05:16:21.485Z,52.22
2022-11-14T05:18:49.363Z,52.67
2022-11-14T05:21:17.274Z,48.80
2022-11-14T05:23:45.306Z,50.58
2022-11-14T05:26:15.859Z,53.25
2022-11-14T05:28:45.433Z,52.60
2022-11-14T05:31:17.898Z,55.83
2022-11-14T05:33:46.695Z,55.45
2022-11-14T05:36:16.318Z,56.42
2022-11-14T05:38:44.674Z,59.35
2022-11-14T05:41:15.140Z,57.08
2022-11-14T05:43:45.153Z,54.90
2022-11-14T05:46:14.841Z,53.30
2022-11-14T05:48:43.303Z,59.63
2022-11-14T05:51:13.558Z,61.25
2022-11-14T05:53:41.923Z,58.20
2022-11-14T05:56:12.569Z,59.38
2022-11-14T05:58:40.909Z,59.65
2022-11-14T06:01:11.447Z,55.88
2022-11-14T06:03:40.967Z,52.42
2022-11-14T06:06:11.312Z,52.45
2022-11-14T06:08:39.729Z,56.30
2022-11-14T06:11:10.121Z,54.40
2022-11-14T06:13:38.669Z,55.75
2022-11-14T06:16:08.867Z,60.95
2022-11-14T06:18:38.875Z,50.38
2022-11-14T06:21:08.461Z,50.63
2022-11-14T06:23:36.341Z,55.38
2022-11-14T06:26:06.241Z,57.20
2022-11-14T06:28:34.531Z,59.58
2022-11-14T06:31:03.848Z,58.63
2022-11-14T06:33:35.809Z,61.55
2022-11-14T06:36:07.009Z,67.65
2022-11-14T06:38:37.358Z,70.15
2022-11-14T06:41:06.447Z,67.55
2022-11-14T06:43:34.920Z,77.93
2022-11-14T06:46:03.692Z,76.28
2022-11-14T06:48:32.452Z,66.78
2022-11-14T06:51:02.125Z,69.95
2022-11-14T06:53:33.077Z,66.30
2022-11-14T06:56:03.180Z,62.55
2022-11-14T06:58:32.741Z,68.07
2022-11-14T07:01:05.026Z,70.60
2022-11-14T07:03:33.299Z,64.75
2022-11-14T07:06:01.754Z,62.17
2022-11-14T07:08:31.524Z,65.13
2022-11-14T07:11:03.808Z,58.55
2022-11-14T07:13:32.629Z,63.67
2022-11-14T07:16:00.898Z,61.92
2022-11-14T07:18:30.843Z,64.07
2022-11-14T07:21:00.490Z,66.47
2022-11-14T07:23:29.162Z,56.55
2022-11-14T07:26:02.548Z,57.85
2022-11-14T07:28:30.792Z,53.83
2022-11-14T07:30:58.850Z,52.72
2022-11-14T07:33:26.788Z,52.05
2022-11-14T07:35:55.173Z,53.13
2022-11-14T07:38:23.071Z,49.88
2022-11-14T07:40:59.319Z,51.28
2022-11-14T07:43:29.879Z,50.38
2022-11-14T07:46:01.245Z,47.50
2022-11-14T07:48:29.699Z,51.47
2022-11-14T07:50:59.920Z,51.13
2022-11-14T07:53:28.230Z,60.13
2022-11-14T07:55:56.096Z,45.67
2022-11-14T07:58:24.038Z,41.92
2022-11-14T08:00:53.272Z,42.50
2022-11-14T08:03:21.226Z,43.42
2022-11-14T08:05:49.151Z,39.60
2022-11-14T08:08:16.998Z,41.58
2022-11-14T08:10:44.820Z,33.45
2022-11-14T08:16:10.729Z,37.13
2022-11-14T08:18:40.530Z,37.95
2022-11-14T08:21:08.846Z,36.28
2022-11-14T08:23:36.830Z,35.45
2022-11-14T08:26:04.855Z,40.47
2022-11-14T08:28:33.100Z,31.83
2022-11-14T08:31:03.245Z,35.92
2022-11-14T08:33:31.830Z,33.20
2022-11-14T08:36:02.056Z,37.55
2022-11-14T08:38:30.313Z,35.08
2022-11-14T08:40:59.710Z,32.88
2022-11-14T08:43:27.612Z,33.88
2022-11-14T08:46:01.607Z,34.40
2022-11-14T08:48:32.310Z,32.47
2022-11-14T08:51:04.271Z,33.78
2022-11-14T08:53:32.473Z,31.60
2022-11-14T08:56:00.412Z,33.47
2022-11-14T08:58:31.180Z,34.67
2022-11-14T09:01:03.320Z,32.42
2022-11-14T09:03:32.628Z,30.63
2022-11-14T09:06:01.249Z,33.45
2022-11-14T09:08:29.980Z,31.58
2022-11-14T09:11:05.349Z,34.05
2022-11-14T09:13:34.238Z,35.30
2022-11-14T09:16:02.330Z,36.00
2022-11-14T09:18:32.847Z,34.97
2022-11-14T09:21:01.981Z,36.63
2022-11-14T09:23:30.115Z,37.35
2022-11-14T09:25:58.489Z,33.85
2022-11-14T09:28:26.380Z,36.70
2022-11-14T09:30:54.279Z,35.90
2022-11-14T09:33:22.092Z,34.70
2022-11-14T09:35:57.690Z,34.38
2022-11-14T09:38:25.605Z,30.15
2022-11-14T09:41:05.531Z,28.58
2022-11-14T09:43:48.742Z,31.83
2022-11-14T09:46:22.907Z,30.55
2022-11-14T09:48:53.149Z,33.17
2022-11-14T09:51:24.619Z,30.70
2022-11-14T09:53:57.371Z,30.08
2022-11-14T09:56:27.357Z,31.55
2022-11-14T09:58:56.811Z,26.90
2022-11-14T10:01:38.118Z,33.10
2022-11-14T10:04:18.328Z,31.48
2022-11-14T10:06:58.418Z,28.60
2022-11-14T10:09:51.199Z,32.35
2022-11-14T10:12:24.655Z,35.60
2022-11-14T10:15:05.666Z,36.00
2022-11-14T10:17:50.471Z,31.25
2022-11-14T10:20:25.201Z,34.30
2022-11-14T10:23:07.296Z,25.85
2022-11-14T10:25:44.881Z,23.98
2022-11-14T10:28:31.141Z,23.23
2022-11-14T10:31:09.604Z,24.42
2022-11-14T10:33:49.412Z,25.70
2022-11-14T10:36:32.250Z,16.65
2022-11-14T10:39:07.294Z,18.88
2022-11-14T10:41:56.312Z,15.73
2022-11-14T10:44:31.829Z,20.92
2022-11-14T10:47:04.902Z,18.60
2022-11-14T10:49:36.964Z,20.05
2022-11-14T10:52:08.649Z,16.02
2022-11-14T10:54:43.000Z,16.67
2022-11-14T10:57:17.049Z,17.45
2022-11-14T10:59:45.321Z,15.95
2022-11-14T11:02:13.411Z,13.65
2022-11-14T11:04:42.388Z,14.90
2022-11-14T11:07:48.898Z,16.20
2022-11-14T11:10:42.350Z,16.85
2022-11-14T11:13:15.624Z,18.42
2022-11-14T11:15:44.061Z,18.38
2022-11-14T11:18:28.860Z,15.77
2022-11-14T11:21:05.136Z,17.67
2022-11-14T11:23:33.107Z,16.70
2022-11-14T11:26:05.873Z,19.55
2022-11-14T11:28:35.147Z,19.77
2022-11-14T11:31:06.246Z,16.02
2022-11-14T11:33:35.217Z,16.00
2022-11-14T11:36:06.368Z,15.27
2022-11-14T11:38:35.237Z,15.82
2022-11-14T11:41:33.297Z,17.75
2022-11-14T11:44:13.746Z,16.40
2022-11-14T11:46:48.020Z,14.82
2022-11-14T11:49:19.604Z,17.35
2022-11-14T11:51:48.521Z,19.17
2022-11-14T11:54:19.545Z,17.15
2022-11-14T11:56:53.399Z,15.85
2022-11-14T11:59:29.982Z,16.63
2022-11-14T12:01:57.961Z,19.60
2022-11-14T12:04:26.172Z,20.35
2022-11-14T12:07:03.911Z,19.05
2022-11-14T12:10:08.911Z,20.45
2022-11-14T12:12:40.260Z,17.15
2022-11-14T12:15:19.317Z,17.33
2022-11-14T12:18:05.706Z,20.30
2022-11-14T12:20:57.986Z,18.80
2022-11-14T12:24:07.658Z,27.27
2022-11-14T12:26:52.312Z,19.25
2022-11-14T12:29:40.437Z,19.35
2022-11-14T12:32:13.652Z,17.45
2022-11-14T12:34:45.562Z,17.63
2022-11-14T12:37:19.690Z,19.05
2022-11-14T12:39:58.336Z,16.42
2022-11-14T12:42:26.412Z,18.40
2022-11-14T12:44:55.850Z,17.90
2022-11-14T12:47:25.978Z,17.83
2022-11-14T12:50:36.394Z,15.95
2022-11-14T12:53:04.496Z,17.98
2022-11-14T12:56:19.310Z,16.17
2022-11-14T12:59:05.665Z,16.92
2022-11-14T13:01:49.146Z,15.85
2022-11-14T13:04:25.855Z,18.83
2022-11-14T13:07:08.288Z,17.13
2022-11-14T13:09:54.418Z,15.82
2022-11-14T13:12:58.196Z,17.55
2022-11-14T13:15:49.738Z,16.17
2022-11-14T13:18:41.285Z,19.10
2022-11-14T13:21:44.741Z,16.08
2022-11-14T13:24:14.447Z,16.77
2022-11-14T13:26:47.578Z,14.65
2022-11-14T13:29:52.013Z,15.23
2022-11-14T13:33:07.754Z,12.50
2022-11-14T13:35:48.480Z,11.13
2022-11-14T13:38:50.664Z,13.98
2022-11-14T13:41:51.077Z,10.57
2022-11-14T13:45:06.107Z,11.45
2022-11-14T13:47:52.439Z,10.55
2022-11-14T13:50:27.048Z,12.95
2022-11-14T13:52:56.702Z,11.82
2022-11-14T13:55:32.605Z,9.68
2022-11-14T13:58:15.824Z,12.05
2022-11-14T14:00:58.784Z,13.10
2022-11-14T14:03:39.789Z,16.50
2022-11-14T14:06:32.017Z,14.35
2022-11-14T14:09:13.693Z,11.15
2022-11-14T14:11:56.324Z,13.48
2022-11-14T14:14:38.573Z,13.25
2022-11-14T14:17:14.063Z,12.88
2022-11-14T14:19:53.656Z,12.68
2022-11-14T14:22:31.024Z,13.48
2022-11-14T14:25:07.853Z,13.95
2022-11-14T14:27:42.331Z,15.65
2022-11-14T14:30:12.873Z,12.00
2022-11-14T14:32:41.252Z,15.85
2022-11-14T14:35:23.843Z,13.05
2022-11-14T14:37:53.567Z,14.85
2022-11-14T14:40:27.631Z,14.75
2022-11-14T14:42:57.405Z,13.07
2022-11-14T14:45:27.987Z,13.73
2022-11-14T14:48:02.341Z,14.40
2022-11-14T14:50:41.903Z,15.88
2022-11-14T14:53:21.767Z,18.75
2022-11-14T14:55:56.861Z,13.15
2022-11-14T14:58:27.235Z,18.52
2022-11-14T15:00:59.338Z,13.80
2022-11-14T15:03:36.421Z,17.77
2022-11-14T15:06:06.793Z,13.60
2022-11-14T15:08:39.769Z,17.85
2022-11-14T15:11:09.393Z,17.10
2022-11-14T15:13:38.776Z,18.15
2022-11-14T15:16:08.353Z,16.52
2022-11-14T15:18:36.664Z,19.67
2022-11-14T15:21:09.213Z,17.33
2022-11-14T15:23:38.982Z,20.77
2022-11-14T15:26:14.624Z,13.95
2022-11-14T15:28:42.494Z,20.63
2022-11-14T15:31:19.694Z,20.05
2022-11-14T15:34:01.458Z,21.25
2022-11-14T15:36:29.347Z,19.17
2022-11-14T15:39:02.228Z,16.42
2022-11-14T15:41:32.507Z,22.10
2022-11-14T15:44:03.810Z,18.08
2022-11-14T15:46:43.670Z,21.88
2022-11-14T15:49:21.042Z,21.13
2022-11-14T15:51:51.771Z,27.90
2022-11-14T15:54:23.543Z,19.52
2022-11-14T15:56:54.081Z,17.13
2022-11-14T15:59:23.070Z,19.27
2022-11-14T16:01:54.095Z,20.02
2022-11-14T16:04:25.209Z,24.20
2022-11-14T16:06:53.366Z,19.98
2022-11-14T16:09:23.001Z,22.65
2022-11-14T16:11:52.398Z,19.55
2022-11-14T16:14:20.323Z,22.65
2022-11-14T16:16:48.238Z,24.50
2022-11-14T16:19:17.936Z,25.50
2022-11-14T16:21:45.895Z,28.45
2022-11-14T16:24:18.160Z,27.05
2022-11-14T16:26:46.021Z,24.48
2022-11-14T16:29:15.564Z,27.13
2022-11-14T16:31:43.634Z,30.15
2022-11-14T16:34:17.772Z,28.25
2022-11-14T16:36:46.373Z,25.08
2022-11-14T16:39:14.458Z,25.30
2022-11-14T16:41:42.387Z,26.45
2022-11-14T16:44:17.168Z,25.58
2022-11-14T16:46:45.570Z,24.00
2022-11-14T16:49:15.343Z,26.20
2022-11-14T16:51:48.410Z,26.67
2022-11-14T16:54:17.537Z,26.92
2022-11-14T16:56:45.489Z,22.20
2022-11-14T16:59:13.821Z,21.48
2022-11-14T17:01:43.777Z,23.38
2022-11-14T17:04:11.756Z,18.65
2022-11-14T17:06:39.766Z,21.02
2022-11-14T17:09:08.020Z,18.75
2022-11-14T17:11:36.477Z,20.23
2022-11-14T17:14:04.385Z,22.60
2022-11-14T17:16:32.223Z,19.13
2022-11-14T17:19:01.473Z,29.55
